Juniper, Georgia
Current Conditions -  °F | °C
As of 7:51 AM on Sunday 21 Dec 2014 (Local Time) from KCSG Reporting Station
Overcast Overcast  
Wind Chill: 50°   Ceiling: 600
Heat Index: 50°   Visibility: 9mi
Dew Point: 47°   Wind: 6mph
Humidity: 89%   Direction: 80°E
Pressure: 30.17"   Gusts: NA
Location:  32.585°N, 84.6173°W
Report Text: KCSG 211251Z AUTO 08005KT 9SM OVC006 10/08 A3017 RMK AO2 SLP214 T01000083
Loading
Personal Weather Stations






























Interactive Weather Map New forecast layout! Learn more

10-Day Weather Forecast

Advertisements
Track Severe Weather on mobile